createdAt,value
2022-08-22T00:04:02.497Z,972.29
2022-08-22T00:09:33.861Z,972.57
2022-08-22T00:15:05.657Z,972.79
2022-08-22T00:20:41.704Z,972.8
2022-08-22T00:26:13.370Z,972.82
2022-08-22T00:31:45.193Z,972.75
2022-08-22T00:37:19.313Z,972.69
2022-08-22T00:42:48.572Z,972.7
2022-08-22T00:48:20.477Z,972.64
2022-08-22T00:53:52.149Z,972.79
2022-08-22T00:59:24.897Z,972.66
2022-08-22T01:04:55.491Z,972.73
2022-08-22T01:10:27.126Z,972.74
2022-08-22T01:15:58.954Z,972.66
2022-08-22T01:21:37.018Z,972.77
2022-08-22T01:27:11.593Z,972.6
2022-08-22T01:32:40.490Z,972.41
2022-08-22T01:38:12.163Z,972.57
2022-08-22T01:44:01.556Z,972.7
2022-08-22T01:49:15.534Z,972.81
2022-08-22T01:54:47.305Z,972.72
2022-08-22T02:00:35.948Z,972.75
2022-08-22T02:05:50.759Z,972.77
2022-08-22T02:11:22.501Z,972.73
2022-08-22T02:16:54.250Z,972.85
2022-08-22T02:22:32.569Z,972.97
2022-08-22T02:28:04.129Z,972.96
2022-08-22T02:33:35.766Z,972.84
2022-08-22T02:39:07.525Z,972.83
2022-08-22T02:44:39.261Z,972.95
2022-08-22T02:50:13.629Z,972.96
2022-08-22T02:55:42.686Z,973.1
2022-08-22T03:01:14.646Z,973.12
2022-08-22T03:06:46.175Z,973.13
2022-08-22T03:12:17.905Z,973.27
2022-08-22T03:17:49.589Z,973.01
2022-08-22T03:23:25.683Z,973.0
2022-08-22T03:29:00.829Z,973.03
2022-08-22T03:34:29.116Z,973.38
2022-08-22T03:40:01.254Z,973.58
2022-08-22T03:45:32.577Z,973.76
2022-08-22T03:51:04.342Z,973.73
2022-08-22T03:56:35.975Z,974.04
2022-08-22T04:02:44.679Z,974.17
2022-08-22T04:07:45.742Z,974.35
2022-08-22T04:13:11.350Z,974.55
2022-08-22T04:18:42.825Z,974.6
2022-08-22T04:24:20.895Z,974.55
2022-08-22T04:29:52.737Z,974.57
2022-08-22T04:35:24.441Z,974.68
2022-08-22T04:40:56.237Z,974.88
2022-08-22T04:46:37.741Z,975.2
2022-08-22T04:51:59.641Z,975.24
2022-08-22T04:57:31.389Z,975.56
2022-08-22T05:03:03.080Z,975.65
2022-08-22T05:08:34.809Z,975.73
2022-08-22T05:14:06.529Z,976.16
2022-08-22T05:19:40.757Z,976.49
2022-08-22T05:25:14.434Z,976.61
2022-08-22T05:30:46.117Z,976.88
2022-08-22T05:36:18.151Z,976.88
2022-08-22T05:41:49.511Z,977.47
2022-08-22T05:47:21.237Z,977.69
2022-08-22T05:52:52.946Z,977.74
2022-08-22T05:58:24.689Z,978.06
2022-08-22T06:03:56.437Z,978.22
2022-08-22T06:09:36.390Z,978.47
2022-08-22T06:14:59.774Z,978.54
2022-08-22T06:20:31.448Z,978.73
2022-08-22T06:26:22.004Z,978.36
2022-08-22T06:31:41.321Z,978.39
2022-08-22T06:37:13.209Z,979.52
2022-08-22T06:42:44.862Z,979.15
2022-08-22T06:48:16.550Z,978.96
2022-08-22T06:53:49.083Z,979.7
2022-08-22T06:59:20.037Z,979.36
2022-08-22T07:04:51.649Z,979.79
2022-08-22T07:10:23.478Z,980.53
2022-08-22T07:15:56.977Z,980.1
2022-08-22T07:21:27.830Z,979.99
2022-08-22T07:27:06.057Z,980.49
2022-08-22T07:32:34.768Z,981.19
2022-08-22T07:38:06.516Z,980.67
2022-08-22T07:43:38.221Z,980.99
2022-08-22T07:49:10.873Z,980.19
2022-08-22T07:54:41.634Z,979.94
2022-08-22T08:00:13.341Z,980.39
2022-08-22T08:05:45.146Z,980.26
2022-08-22T08:11:16.841Z,981.47
2022-08-22T08:16:48.592Z,980.51
2022-08-22T08:22:20.262Z,981.44
2022-08-22T08:27:56.627Z,981.05
2022-08-22T08:33:28.075Z,981.08
2022-08-22T08:38:59.844Z,980.78
2022-08-22T08:44:31.427Z,980.62
2022-08-22T08:50:03.871Z,979.82
2022-08-22T08:55:35.055Z,981.62
2022-08-22T09:01:06.962Z,980.01
2022-08-22T09:06:52.886Z,981.09
2022-08-22T09:12:11.133Z,981.09
2022-08-22T09:17:42.643Z,980.44
2022-08-22T09:23:13.630Z,980.81
2022-08-22T09:28:49.749Z,980.09
2022-08-22T09:34:26.150Z,980.3
2022-08-22T09:39:57.337Z,980.55
2022-08-22T09:45:24.831Z,980.67
2022-08-22T09:51:33.241Z,979.77
2022-08-22T09:56:29.767Z,979.48
2022-08-22T10:02:01.700Z,980.47
2022-08-22T10:07:32.559Z,979.39
2022-08-22T10:13:10.750Z,979.34
2022-08-22T10:18:35.782Z,979.87
2022-08-22T10:24:07.968Z,978.98
2022-08-22T10:29:45.672Z,979.49
2022-08-22T10:35:17.472Z,978.19
2022-08-22T10:40:49.222Z,977.08
2022-08-22T10:46:21.248Z,978.0
2022-08-22T10:51:52.511Z,977.76
2022-08-22T10:57:24.384Z,977.84
2022-08-22T11:03:00.682Z,978.35
2022-08-22T11:08:29.102Z,978.34
2022-08-22T11:14:00.884Z,978.32
2022-08-22T11:19:31.068Z,978.4
2022-08-22T11:25:05.444Z,978.37
2022-08-22T11:30:45.880Z,978.84
2022-08-22T11:36:11.290Z,976.61
2022-08-22T11:41:42.461Z,976.78
2022-08-22T11:47:14.564Z,977.2
2022-08-22T11:52:52.545Z,977.06
2022-08-22T11:58:21.152Z,975.99
2022-08-22T12:03:59.328Z,977.35
2022-08-22T12:09:23.925Z,976.81
2022-08-22T12:14:55.405Z,977.49
2022-08-22T12:20:26.507Z,976.79
2022-08-22T12:25:56.261Z,976.64
2022-08-22T12:31:38.381Z,975.79
2022-08-22T12:37:07.117Z,975.01
2022-08-22T12:42:46.382Z,975.01
2022-08-22T12:48:09.478Z,974.09
2022-08-22T12:53:42.732Z,974.21
2022-08-22T12:59:13.002Z,974.2
2022-08-22T13:04:44.822Z,975.21
2022-08-22T13:10:18.134Z,975.02
2022-08-22T13:15:54.450Z,975.55
2022-08-22T13:21:21.298Z,975.69
2022-08-22T13:26:51.590Z,975.53
2022-08-22T13:32:28.330Z,975.39
2022-08-22T13:38:00.561Z,974.94
2022-08-22T13:43:31.146Z,974.52
2022-08-22T13:49:02.831Z,975.31
2022-08-22T13:54:40.914Z,975.32
2022-08-22T14:00:07.898Z,974.42
2022-08-22T14:05:38.598Z,974.83
2022-08-22T14:11:10.442Z,974.21
2022-08-22T14:16:41.462Z,973.9
2022-08-22T14:22:15.177Z,974.16
2022-08-22T14:27:46.693Z,973.63
2022-08-22T14:33:21.127Z,973.4
2022-08-22T14:38:53.957Z,973.6
2022-08-22T14:44:25.393Z,973.27
2022-08-22T14:49:56.889Z,973.46
2022-08-22T14:55:31.310Z,973.81
2022-08-22T15:00:59.655Z,973.87
2022-08-22T15:06:32.198Z,974.23
2022-08-22T15:12:05.265Z,974.39
2022-08-22T15:17:34.790Z,974.62
2022-08-22T15:23:10.796Z,974.16
2022-08-22T15:28:53.890Z,973.46
2022-08-22T15:34:18.752Z,973.93
2022-08-22T15:39:47.341Z,973.1
2022-08-22T15:45:18.585Z,973.46
2022-08-22T15:50:52.072Z,973.66
2022-08-22T15:56:21.336Z,973.48
2022-08-22T16:01:53.798Z,973.05
2022-08-22T16:07:24.615Z,973.08
2022-08-22T16:12:56.523Z,973.11
2022-08-22T16:18:28.072Z,972.65
2022-08-22T16:23:59.862Z,972.67
2022-08-22T16:29:41.837Z,972.93
2022-08-22T16:35:07.654Z,973.0
2022-08-22T16:40:39.359Z,972.65
2022-08-22T16:46:11.110Z,972.61
2022-08-22T16:51:42.799Z,972.95
2022-08-22T16:57:15.217Z,973.11
2022-08-22T17:02:46.237Z,972.62
2022-08-22T17:08:18.125Z,972.99
2022-08-22T17:13:49.871Z,973.04
2022-08-22T17:19:22.461Z,972.89
2022-08-22T17:24:53.380Z,972.43
2022-08-22T17:30:25.125Z,972.74
2022-08-22T17:36:01.240Z,972.38
2022-08-22T17:41:32.916Z,972.23
2022-08-22T17:47:04.729Z,972.62
2022-08-22T17:52:36.501Z,971.86
2022-08-22T17:58:08.233Z,972.21
2022-08-22T18:03:39.918Z,972.5
2022-08-22T18:09:15.798Z,972.13
2022-08-22T18:14:43.477Z,971.87
2022-08-22T18:20:15.258Z,972.3
2022-08-22T18:25:47.316Z,972.34
2022-08-22T18:31:18.658Z,972.19
2022-08-22T18:36:56.170Z,972.21
2022-08-22T18:42:26.598Z,972.03
2022-08-22T18:47:58.622Z,972.05
2022-08-22T18:53:29.949Z,971.9
2022-08-22T18:59:06.802Z,972.01
2022-08-22T19:04:34.137Z,972.11
2022-08-22T19:10:05.722Z,972.2
2022-08-22T19:15:37.430Z,972.26
2022-08-22T19:21:09.138Z,972.41
2022-08-22T19:26:40.846Z,972.28
2022-08-22T19:32:13.959Z,972.56
2022-08-22T19:37:50.722Z,972.89
2022-08-22T19:43:24.094Z,972.85
2022-08-22T19:48:54.147Z,973.05
2022-08-22T19:54:25.856Z,973.02
2022-08-22T19:59:57.687Z,973.09
2022-08-22T20:05:29.310Z,972.87
2022-08-22T20:11:01.362Z,972.63
2022-08-22T20:16:32.807Z,972.65
2022-08-22T20:22:04.558Z,972.54
2022-08-22T20:27:36.971Z,972.24
2022-08-22T20:33:08.024Z,972.68
2022-08-22T20:38:56.647Z,973.07
2022-08-22T20:44:15.808Z,972.95
2022-08-22T20:49:47.654Z,973.16
2022-08-22T20:55:19.301Z,973.03
2022-08-22T21:00:51.235Z,973.0
2022-08-22T21:06:22.809Z,973.46
2022-08-22T21:11:54.510Z,972.49
2022-08-22T21:17:28.307Z,972.96
2022-08-22T21:22:57.882Z,973.42
2022-08-22T21:28:29.707Z,973.6
2022-08-22T21:34:01.428Z,973.48
2022-08-22T21:39:37.525Z,973.42
2022-08-22T21:45:09.222Z,973.56
2022-08-22T21:50:40.890Z,973.33
2022-08-22T21:56:12.697Z,973.58
2022-08-22T22:01:47.796Z,972.47
2022-08-22T22:07:16.265Z,973.16
2022-08-22T22:12:47.802Z,973.33
2022-08-22T22:18:19.556Z,973.23
2022-08-22T22:23:51.316Z,973.29
2022-08-22T22:29:23.000Z,973.01
2022-08-22T22:34:54.744Z,973.31
2022-08-22T22:40:31.046Z,973.17
2022-08-22T22:46:02.601Z,973.77
2022-08-22T22:51:34.261Z,973.95
2022-08-22T22:57:20.011Z,974.3
2022-08-22T23:02:37.754Z,974.05
2022-08-22T23:08:09.469Z,974.16
2022-08-22T23:13:43.661Z,973.79
2022-08-22T23:19:13.005Z,974.02
2022-08-22T23:24:44.722Z,973.88
2022-08-22T23:30:16.413Z,974.09
2022-08-22T23:35:48.097Z,974.13
2022-08-22T23:41:26.140Z,974.16
2022-08-22T23:46:57.985Z,974.02
2022-08-22T23:52:29.601Z,974.04
2022-08-22T23:58:02.284Z,974.41
